Time;durP1;ratioP1;P1;durP2;ratioP2;P2;SDS_P1;SDS_P2;PMS_P1;PMS_P2;Temp;Humidity;BMP_temperature;BMP_pressure;BME280_temperature;BME280_humidity;BME280_pressure;Samples;Min_cycle;Max_cycle;Signal;HPM_P1;HPM_P2
2022/05/06 00:00:10;;;;;;;11.95;6.68;;;;;;;13.66;100.00;99245.09;4371142;32;20040;-87
2022/05/06 00:02:56;;;;;;;9.65;7.00;;;;;;;13.51;100.00;99226.94;4366401;32;20082;-81
2022/05/06 00:05:23;;;;;;;11.25;6.80;;;;;;;13.45;100.00;99223.41;4372090;32;20065;-90
2022/05/06 00:07:49;;;;;;;12.10;6.82;;;;;;;13.55;100.00;99249.69;4372201;32;20084;-84
2022/05/06 00:10:15;;;;;;;12.63;7.37;;;;;;;13.60;100.00;99252.41;4369926;32;20066;-84
2022/05/06 00:12:42;;;;;;;12.68;7.32;;;;;;;13.58;100.00;99254.56;4370725;32;20068;-80
2022/05/06 00:15:09;;;;;;;10.38;7.70;;;;;;;13.54;100.00;99253.47;4370867;32;20439;-84
2022/05/06 00:17:35;;;;;;;13.00;7.75;;;;;;;13.53;100.00;99252.66;4370964;32;20039;-87
2022/05/06 00:20:03;;;;;;;14.63;7.37;;;;;;;13.43;100.00;99242.59;4371668;32;20058;-84
2022/05/06 00:22:29;;;;;;;12.30;8.15;;;;;;;13.50;100.00;99241.53;4370540;32;20052;-84
2022/05/06 00:24:56;;;;;;;9.68;7.43;;;;;;;13.31;100.00;99216.81;4365074;32;20079;-76
2022/05/06 00:27:29;;;;;;;10.88;8.20;;;;;;;13.45;100.00;99250.44;4369599;32;20073;-87
2022/05/06 00:29:56;;;;;;;19.30;8.35;;;;;;;13.24;100.00;99217.03;4374168;32;20074;-88
2022/05/06 00:32:23;;;;;;;11.30;7.55;;;;;;;13.50;100.00;99246.94;4370455;32;20467;-86
2022/05/06 00:34:49;;;;;;;13.27;8.57;;;;;;;13.46;100.00;99251.25;4358007;32;20040;-78
2022/05/06 00:37:16;;;;;;;11.00;8.48;;;;;;;13.23;100.00;99220.84;4340940;33;20080;-86
2022/05/06 00:39:42;;;;;;;12.48;6.97;;;;;;;13.43;100.00;99264.25;4343512;33;20070;-89
2022/05/06 00:42:09;;;;;;;11.30;7.32;;;;;;;13.43;100.00;99269.66;4348391;32;20061;-89
2022/05/06 00:44:35;;;;;;;14.98;8.00;;;;;;;13.45;100.00;99266.69;4358921;32;20489;-85
2022/05/06 00:47:04;;;;;;;12.37;7.93;;;;;;;13.03;100.00;99206.09;4348272;32;20361;-83
2022/05/06 00:49:31;;;;;;;14.82;8.15;;;;;;;13.49;100.00;99275.06;4371164;32;20081;-86
2022/05/06 00:51:57;;;;;;;14.18;8.35;;;;;;;13.41;100.00;99265.56;4373087;32;20039;-86
2022/05/06 00:54:24;;;;;;;11.15;8.65;;;;;;;13.43;100.00;99277.75;4373769;32;20035;-84
2022/05/06 00:56:52;;;;;;;16.67;8.85;;;;;;;13.41;100.00;99282.59;4358770;32;20077;-88
2022/05/06 00:59:19;;;;;;;11.85;8.23;;;;;;;13.49;100.00;99285.91;4371856;32;20039;-86
2022/05/06 01:01:45;;;;;;;14.13;8.98;;;;;;;13.28;100.00;99253.31;4373944;32;20050;-87
2022/05/06 01:04:16;;;;;;;13.62;8.10;;;;;;;13.42;100.00;99278.81;4372033;32;20051;-86
2022/05/06 01:06:44;;;;;;;14.48;9.43;;;;;;;13.31;100.00;99265.50;4368799;32;20384;-82
2022/05/06 01:09:18;;;;;;;14.93;7.87;;;;;;;13.42;100.00;99276.13;4372095;32;20106;-76
2022/05/06 01:11:45;;;;;;;14.52;8.52;;;;;;;13.39;100.00;99290.16;4360220;32;20038;-84
2022/05/06 01:14:30;;;;;;;18.23;9.65;;;;;;;13.37;100.00;99284.22;4372713;32;20057;-89
2022/05/06 01:16:58;;;;;;;15.27;8.48;;;;;;;13.43;100.00;99291.28;4367402;32;20061;-90
2022/05/06 01:19:24;;;;;;;19.55;9.07;;;;;;;13.50;100.00;99287.50;4373836;32;20397;-88
2022/05/06 01:21:54;;;;;;;20.98;10.05;;;;;;;13.49;100.00;99284.00;4372335;32;20417;-88
2022/05/06 01:24:21;;;;;;;20.27;8.93;;;;;;;13.33;100.00;99263.38;4373534;32;20065;-87
2022/05/06 01:27:14;;;;;;;12.05;8.95;;;;;;;13.53;100.00;99295.09;4370910;32;20720;-82
2022/05/06 01:29:44;;;;;;;12.27;9.30;;;;;;;13.33;100.00;99261.47;4373906;32;20073;-92
2022/05/06 01:32:11;;;;;;;15.13;8.52;;;;;;;13.51;100.00;99291.84;4379429;32;20080;-90
2022/05/06 01:34:40;;;;;;;12.80;9.52;;;;;;;13.38;100.00;99298.53;4385024;32;20226;-83
2022/05/06 01:37:15;;;;;;;15.15;9.45;;;;;;;13.39;100.00;99289.38;4389341;32;20074;-91
2022/05/06 01:39:44;;;;;;;11.90;9.30;;;;;;;13.48;100.00;99298.59;4389187;32;20076;-84
2022/05/06 01:42:13;;;;;;;13.10;9.10;;;;;;;13.46;100.00;99289.12;4376509;32;20303;-83
2022/05/06 01:44:43;;;;;;;13.95;9.52;;;;;;;13.50;100.00;99301.03;4372150;32;20122;-83
2022/05/06 01:47:23;;;;;;;18.58;9.23;;;;;;;13.05;100.00;99225.59;4371081;32;20043;-83
2022/05/06 01:49:52;;;;;;;11.77;9.27;;;;;;;13.33;100.00;99280.41;4370355;32;20031;-79
2022/05/06 01:52:20;;;;;;;14.82;10.27;;;;;;;13.35;100.00;99282.84;4371149;32;20081;-87
2022/05/06 01:54:47;;;;;;;24.45;10.82;;;;;;;13.40;100.00;99297.22;4372829;32;20054;-86
2022/05/06 01:57:14;;;;;;;19.50;10.38;;;;;;;13.17;100.00;99248.91;4371632;32;20061;-86
2022/05/06 01:59:42;;;;;;;16.50;10.02;;;;;;;13.43;100.00;99285.88;4365552;32;20080;-77
2022/05/06 02:02:10;;;;;;;24.77;11.07;;;;;;;13.24;100.00;99255.72;4387646;32;20103;-93
2022/05/06 02:07:22;;;;;;;13.45;9.75;;;;;;;13.19;100.00;99262.97;4375606;32;20130;-91
2022/05/06 02:09:49;;;;;;;15.45;9.93;;;;;;;13.14;100.00;99261.06;4373090;32;20085;-87
2022/05/06 02:12:16;;;;;;;16.42;11.18;;;;;;;13.32;100.00;99308.47;4359116;32;20049;-86
2022/05/06 02:14:44;;;;;;;15.25;10.70;;;;;;;13.28;100.00;99304.69;4373006;32;20035;-87
2022/05/06 02:17:11;;;;;;;15.82;11.20;;;;;;;13.22;100.00;99297.59;4369935;32;20063;-78
2022/05/06 02:19:38;;;;;;;16.90;11.55;;;;;;;12.97;100.00;99272.03;4372477;32;20087;-86
2022/05/06 02:22:04;;;;;;;23.02;11.20;;;;;;;12.92;100.00;99273.88;4372115;32;20055;-86
2022/05/06 02:24:32;;;;;;;22.48;11.73;;;;;;;12.86;100.00;99276.53;4372678;32;20463;-86
2022/05/06 02:26:59;;;;;;;16.92;11.93;;;;;;;13.07;100.00;99315.34;4371738;32;20039;-79
2022/05/06 02:29:26;;;;;;;17.80;11.70;;;;;;;13.04;100.00;99313.16;4371750;32;20061;-87
2022/05/06 02:34:38;;;;;;;18.77;11.55;;;;;;;13.00;100.00;99312.06;4343524;32;20083;-88
2022/05/06 02:37:05;;;;;;;16.15;12.05;;;;;;;12.74;100.00;99277.81;4340633;33;20052;-84
2022/05/06 02:39:32;;;;;;;18.42;12.75;;;;;;;12.76;100.00;99270.25;4364809;32;20106;-83
2022/05/06 02:42:00;;;;;;;18.17;11.55;;;;;;;12.92;100.00;99307.09;4374083;32;20047;-88
2022/05/06 02:44:27;;;;;;;20.08;12.82;;;;;;;12.84;100.00;99296.78;4373196;32;20105;-88
2022/05/06 02:46:54;;;;;;;16.12;11.93;;;;;;;12.86;100.00;99308.97;4370902;32;20040;-77
2022/05/06 02:49:20;;;;;;;20.75;13.85;;;;;;;12.77;100.00;99298.91;4374137;32;20032;-88
2022/05/06 02:51:47;;;;;;;22.75;13.13;;;;;;;12.71;100.00;99301.53;4360019;32;20115;-89
2022/05/06 02:54:21;;;;;;;19.35;12.95;;;;;;;12.72;100.00;99308.56;4349680;32;20028;-85
2022/05/06 02:56:49;;;;;;;16.55;12.18;;;;;;;12.71;100.00;99301.53;4358161;32;20078;-79
2022/05/06 02:59:16;;;;;;;19.08;13.13;;;;;;;12.47;100.00;99275.94;4357870;32;20044;-88
2022/05/06 03:01:43;;;;;;;21.48;13.32;;;;;;;12.61;100.00;99306.84;4372247;32;20040;-87
2022/05/06 03:04:13;;;;;;;17.52;12.57;;;;;;;12.31;100.00;99274.97;4357897;32;20043;-86
2022/05/06 03:06:42;;;;;;;20.50;12.77;;;;;;;12.26;100.00;99267.63;4371706;32;20486;-81
2022/05/06 03:09:09;;;;;;;21.77;13.50;;;;;;;12.42;100.00;99303.72;4357428;32;20044;-86
2022/05/06 03:11:36;;;;;;;22.13;12.57;;;;;;;12.22;100.00;99271.94;4371719;32;20052;-84
2022/05/06 03:14:04;;;;;;;23.00;13.82;;;;;;;12.18;100.00;99270.81;4357279;32;20049;-87
2022/05/06 03:16:31;;;;;;;19.85;13.88;;;;;;;12.44;100.00;99325.88;4371564;32;20061;-85
2022/05/06 03:19:00;;;;;;;22.45;14.50;;;;;;;12.51;100.00;99323.78;4363654;32;20079;-80
2022/05/06 03:21:27;;;;;;;25.62;14.48;;;;;;;12.25;100.00;99287.59;4357376;32;20058;-87
2022/05/06 03:23:54;;;;;;;30.37;15.05;;;;;;;12.45;100.00;99313.19;4344280;32;20054;-84
2022/05/06 03:26:21;;;;;;;28.33;15.43;;;;;;;12.22;100.00;99281.91;4341593;33;20097;-84
2022/05/06 03:28:48;;;;;;;27.87;14.65;;;;;;;12.25;100.00;99292.19;4367660;32;20044;-78
2022/05/06 03:31:18;;;;;;;21.62;14.23;;;;;;;12.45;100.00;99324.81;4371674;32;20048;-86
2022/05/06 03:33:47;;;;;;;23.77;15.90;;;;;;;12.38;100.00;99323.37;4370921;32;20065;-86
2022/05/06 03:36:15;;;;;;;28.90;16.65;;;;;;;12.47;100.00;99338.06;4370185;32;20047;-86
2022/05/06 03:38:42;;;;;;;25.23;15.10;;;;;;;12.40;100.00;99332.03;4358283;32;20036;-80
2022/05/06 03:41:08;;;;;;;32.08;18.58;;;;;;;12.02;100.00;99269.03;4375460;32;20058;-92
2022/05/06 03:43:35;;;;;;;37.08;21.65;;;;;;;12.15;100.00;99298.31;4384746;32;20087;-86
2022/05/06 03:46:03;;;;;;;35.83;21.25;;;;;;;12.48;100.00;99337.00;4383183;32;20396;-85
2022/05/06 03:48:33;;;;;;;36.53;21.05;;;;;;;12.40;100.00;99332.03;4372344;32;20055;-81
2022/05/06 03:53:46;;;;;;;42.00;21.10;;;;;;;12.17;100.00;99312.34;4370859;32;20075;-81
2022/05/06 03:56:13;;;;;;;33.53;22.55;;;;;;;12.41;100.00;99347.16;4356418;32;20065;-81
2022/05/06 03:58:39;;;;;;;40.45;22.42;;;;;;;12.23;100.00;99311.34;4371825;32;20097;-80
2022/05/06 04:01:13;;;;;;;45.45;23.45;;;;;;;12.55;100.00;99356.50;4375834;32;20044;-81
2022/05/06 04:03:40;;;;;;;36.25;20.12;;;;;;;12.54;100.00;99344.87;4362499;32;20049;-82
2022/05/06 04:06:14;;;;;;;32.33;19.80;;;;;;;12.50;100.00;99364.56;4378240;32;20110;-82
2022/05/06 04:08:42;;;;;;;37.40;22.10;;;;;;;12.60;100.00;99353.84;4376153;32;20027;-80
2022/05/06 04:11:09;;;;;;;32.53;20.75;;;;;;;12.34;100.00;99329.28;4361212;32;20061;-81
2022/05/06 04:13:36;;;;;;;39.80;22.13;;;;;;;12.59;100.00;99367.59;4375249;32;20080;-85
2022/05/06 04:16:04;;;;;;;36.45;22.48;;;;;;;12.61;100.00;99377.09;4360131;32;20109;-82
2022/05/06 04:18:31;;;;;;;32.22;20.27;;;;;;;12.70;100.00;99375.56;4349580;32;20334;-77
2022/05/06 04:23:44;;;;;;;35.13;22.48;;;;;;;12.32;100.00;99341.41;4377209;32;20088;-83
2022/05/06 04:26:14;;;;;;;37.13;22.08;;;;;;;12.61;100.00;99387.91;4373860;32;20036;-78
2022/05/06 04:28:41;;;;;;;31.17;19.25;;;;;;;12.45;100.00;99348.31;4361415;32;20049;-82
2022/05/06 04:31:08;;;;;;;35.65;22.52;;;;;;;12.51;100.00;99358.09;4375647;32;20069;-81
2022/05/06 04:33:37;;;;;;;28.33;19.10;;;;;;;12.52;100.00;99384.00;4372902;32;20053;-80
2022/05/06 04:36:04;;;;;;;39.25;21.40;;;;;;;12.60;100.00;99386.25;4376445;32;20036;-80
2022/05/06 04:38:31;;;;;;;38.22;22.83;;;;;;;12.37;100.00;99365.78;4373619;32;20073;-79
2022/05/06 04:40:59;;;;;;;35.90;20.77;;;;;;;12.40;100.00;99367.13;4376393;32;20097;-80
2022/05/06 04:43:27;;;;;;;32.78;20.60;;;;;;;12.48;100.00;99372.09;4376285;32;20495;-81
2022/05/06 04:45:55;;;;;;;30.70;19.27;;;;;;;12.74;100.00;99410.19;4387103;32;20087;-79
2022/05/06 04:48:22;;;;;;;37.50;21.02;;;;;;;12.62;100.00;99394.94;4389669;32;20051;-78
2022/05/06 04:50:49;;;;;;;33.50;20.37;;;;;;;12.48;100.00;99372.09;4376279;32;20078;-83
2022/05/06 04:53:17;;;;;;;35.50;22.67;;;;;;;12.66;100.00;99412.25;4389362;32;20043;-84
2022/05/06 04:55:51;;;;;;;38.72;22.67;;;;;;;12.77;100.00;99406.97;4389976;32;20039;-86
2022/05/06 04:58:19;;;;;;;39.67;23.55;;;;;;;12.62;100.00;99372.50;4376612;32;20127;-83
2022/05/06 05:00:46;;;;;;;38.53;22.00;;;;;;;12.88;100.00;99414.13;4384815;32;20119;-81
2022/05/06 05:03:12;;;;;;;45.58;24.35;;;;;;;12.61;100.00;99377.09;4383803;32;20129;-81
2022/05/06 05:05:40;;;;;;;44.20;24.08;;;;;;;12.59;100.00;99389.22;4383446;32;20111;-81
2022/05/06 05:08:08;;;;;;;34.53;22.15;;;;;;;12.77;100.00;99406.97;4384412;32;20103;-81
2022/05/06 05:10:35;;;;;;;44.70;25.52;;;;;;;12.64;100.00;99392.00;4383477;32;20091;-77
2022/05/06 05:13:03;;;;;;;50.33;28.05;;;;;;;12.88;100.00;99424.91;4384347;32;20075;-82
2022/05/06 05:15:30;;;;;;;48.03;26.70;;;;;;;12.89;100.00;99418.44;4368051;32;20126;-83
2022/05/06 05:17:57;;;;;;;44.05;24.98;;;;;;;12.68;100.00;99380.44;4383150;32;20083;-81
2022/05/06 05:20:25;;;;;;;48.08;28.58;;;;;;;12.75;100.00;99371.28;4382406;32;20118;-86
2022/05/06 05:22:52;;;;;;;38.17;21.42;;;;;;;12.80;100.00;99368.63;4374352;32;20039;-80
2022/05/06 05:25:19;;;;;;;34.17;22.27;;;;;;;12.80;100.00;99369.44;4367890;32;20237;-81
2022/05/06 05:27:46;;;;;;;32.80;22.30;;;;;;;13.06;100.00;99413.72;4379906;32;20430;-82
2022/05/06 05:30:14;;;;;;;34.40;22.10;;;;;;;12.98;100.00;99397.97;4381765;32;20079;-80
2022/05/06 05:32:40;;;;;;;33.75;21.73;;;;;;;12.66;100.00;99373.63;4377647;32;20073;-82
2022/05/06 05:35:08;;;;;;;39.28;21.30;;;;;;;12.88;100.00;99419.53;4372287;32;20047;-81
2022/05/06 05:37:36;;;;;;;40.65;24.55;;;;;;;12.91;100.00;99405.50;4378803;32;20147;-79
2022/05/06 05:40:03;;;;;;;42.20;22.33;;;;;;;13.03;100.00;99416.13;4380471;32;20102;-81
2022/05/06 05:42:32;;;;;;;47.03;22.80;;;;;;;13.12;100.00;99420.00;4377132;32;20043;-78
2022/05/06 05:50:31;;;;;;;37.95;23.10;;;;;;;13.38;100.00;99433.78;4379148;32;20119;-81
2022/05/06 05:52:59;;;;;;;38.30;23.15;;;;;;;13.26;100.00;99401.47;4375950;32;20134;-79
2022/05/06 05:55:25;;;;;;;37.78;23.77;;;;;;;13.53;100.00;99431.19;4376861;32;20305;-80
2022/05/06 05:57:52;;;;;;;39.25;24.30;;;;;;;13.51;100.00;99437.94;4377423;32;20065;-80
2022/05/06 06:00:19;;;;;;;41.47;22.87;;;;;;;13.49;100.00;99434.69;4378235;32;20152;-81
2022/05/06 06:02:46;;;;;;;43.30;26.40;;;;;;;13.54;100.00;99432.81;4360572;32;20053;-81
2022/05/06 06:05:13;;;;;;;45.80;26.17;;;;;;;13.48;100.00;99411.41;4369200;32;20095;-80
2022/05/06 06:07:41;;;;;;;39.88;22.17;;;;;;;13.57;100.00;99426.06;4373349;32;20092;-82
2022/05/06 06:10:09;;;;;;;37.28;21.70;;;;;;;13.63;100.00;99435.88;4360519;32;20104;-80
2022/05/06 06:12:42;;;;;;;36.05;22.23;;;;;;;13.55;100.00;99409.28;4368736;32;20059;-84
2022/05/06 06:15:10;;;;;;;34.40;21.75;;;;;;;13.50;100.00;99410.06;4365210;32;20084;-84
2022/05/06 06:17:37;;;;;;;37.53;21.15;;;;;;;13.74;100.00;99448.38;4370659;32;20073;-90
2022/05/06 06:20:05;;;;;;;45.12;21.73;;;;;;;13.76;100.00;99445.41;4352879;32;20359;-87
2022/05/06 06:22:35;;;;;;;35.70;21.67;;;;;;;13.71;100.00;99448.91;4371977;32;20057;-89
2022/05/06 06:25:02;;;;;;;51.20;23.27;;;;;;;13.72;100.00;99466.78;4372793;32;20060;-78
2022/05/06 06:27:30;;;;;;;49.28;21.87;;;;;;;13.43;100.00;99429.22;4371374;32;20083;-89
2022/05/06 06:29:58;;;;;;;38.72;23.08;;;;;;;13.52;100.00;99450.41;4373116;32;20047;-89
2022/05/06 06:32:25;;;;;;;37.83;23.38;;;;;;;13.57;100.00;99455.84;4359913;32;20053;-89
2022/05/06 06:34:52;;;;;;;43.47;23.23;;;;;;;13.60;100.00;99458.84;4373196;32;20061;-89
2022/05/06 06:37:20;;;;;;;43.78;25.80;;;;;;;13.68;100.00;99452.13;4369922;32;20373;-82
2022/05/06 06:39:48;;;;;;;40.17;21.17;;;;;;;13.52;100.00;99423.34;4358913;32;20047;-85
2022/05/06 06:42:15;;;;;;;43.25;21.48;;;;;;;13.68;100.00;99464.84;4372576;32;20074;-86
2022/05/06 06:44:46;;;;;;;35.80;21.67;;;;;;;13.63;100.00;99473.75;4370361;32;20043;-76
2022/05/06 06:47:14;;;;;;;37.88;20.70;;;;;;;13.73;100.00;99468.41;4356454;32;20016;-80
2022/05/06 06:49:45;;;;;;;44.83;23.33;;;;;;;13.67;100.00;99472.12;4372160;32;20055;-77
2022/05/06 06:52:18;;;;;;;41.22;22.92;;;;;;;13.69;100.00;99480.00;4370714;32;20039;-76
2022/05/06 06:54:45;;;;;;;38.83;21.15;;;;;;;13.70;100.00;99479.72;4358040;32;20079;-76
2022/05/06 06:57:11;;;;;;;36.05;20.88;;;;;;;13.35;100.00;99440.50;4371571;32;20368;-77
2022/05/06 06:59:38;;;;;;;43.10;21.62;;;;;;;13.57;100.00;99480.19;4369475;32;20104;-77
2022/05/06 07:02:05;;;;;;;44.67;23.20;;;;;;;13.56;100.00;99481.25;4358179;32;20404;-78
2022/05/06 07:04:31;;;;;;;39.60;21.90;;;;;;;13.61;100.00;99474.00;4358681;32;20065;-76
2022/05/06 07:12:28;;;;;;;41.25;22.67;;;;;;;13.87;100.00;99478.78;4354586;32;20078;-74
2022/05/06 07:14:55;;;;;;;39.42;22.35;;;;;;;14.09;100.00;99481.38;4356054;32;20357;-74
2022/05/06 07:17:21;;;;;;;35.90;22.75;;;;;;;13.67;100.00;99415.31;4356422;32;20035;-75
2022/05/06 07:19:48;;;;;;;38.38;19.58;;;;;;;14.16;100.00;99482.75;4343464;32;20032;-75
2022/05/06 07:22:15;;;;;;;35.85;20.62;;;;;;;14.33;100.00;99479.06;4352848;32;20388;-75
2022/05/06 07:24:42;;;;;;;37.38;24.02;;;;;;;14.22;100.00;99469.25;4355383;32;20538;-74
2022/05/06 07:27:08;;;;;;;46.22;25.05;;;;;;;14.11;100.00;99447.53;4342180;33;20093;-74
2022/05/06 07:29:35;;;;;;;45.35;21.58;;;;;;;14.40;100.00;99482.31;4356552;32;20044;-76
2022/05/06 07:32:02;;;;;;;35.20;21.40;;;;;;;14.48;100.00;99489.94;4356469;32;20150;-77
2022/05/06 07:34:28;;;;;;;40.42;20.85;;;;;;;14.13;100.00;99456.19;4354406;32;20436;-76
2022/05/06 07:36:55;;;;;;;37.05;21.25;;;;;;;14.21;100.00;99468.41;4354936;32;20969;-75
2022/05/06 07:39:21;;;;;;;36.20;20.67;;;;;;;14.39;100.00;99496.13;4357361;32;20377;-76
2022/05/06 07:41:47;;;;;;;35.05;17.98;;;;;;;14.17;100.00;99464.62;4369861;32;20365;-75
2022/05/06 07:44:14;;;;;;;41.42;19.77;;;;;;;14.17;100.00;99495.22;4357148;32;20061;-76
2022/05/06 07:46:40;;;;;;;33.08;20.17;;;;;;;14.34;100.00;99505.03;4368628;32;20047;-76
2022/05/06 07:49:07;;;;;;;33.45;18.30;;;;;;;14.48;100.00;99505.41;4358081;32;20065;-74
2022/05/06 07:51:34;;;;;;;38.72;21.77;;;;;;;14.54;100.00;99505.16;4363566;32;20074;-75
2022/05/06 07:54:00;;;;;;;29.73;16.67;;;;;;;14.19;100.00;99480.59;4357380;32;20098;-74
2022/05/06 07:56:29;;;;;;;30.10;16.17;;;;;;;14.36;100.00;99513.75;4361063;32;20047;-76
2022/05/06 07:58:56;;;;;;;21.85;15.35;;;;;;;14.49;100.00;99520.59;4369582;32;20079;-74
2022/05/06 08:04:32;;;;;;;31.20;17.67;;;;;;;14.51;100.00;99516.50;4354057;33;20102;-74
2022/05/06 08:06:54;;;;;;;21.65;13.50;;;;;;;14.47;100.00;99526.25;4355943;33;20369;-74
2022/05/06 08:09:21;;;;;;;22.85;14.85;;;;;;;14.36;100.00;99508.34;4369906;32;20376;-74
2022/05/06 08:11:48;;;;;;;22.85;13.77;;;;;;;14.37;100.00;99504.53;4368748;32;20495;-75
2022/05/06 08:14:16;;;;;;;25.95;15.07;;;;;;;14.29;100.00;99507.75;4366498;32;20205;-75
2022/05/06 08:16:50;;;;;;;20.88;13.95;;;;;;;14.30;100.00;99514.78;4362616;32;20114;-76
2022/05/06 08:19:18;;;;;;;29.40;13.30;;;;;;;14.50;100.00;99508.66;4348216;33;20448;-75
2022/05/06 08:21:44;;;;;;;25.58;12.15;;;;;;;14.51;100.00;99513.81;4358012;32;20039;-75
2022/05/06 08:24:12;;;;;;;28.70;13.10;;;;;;;14.58;100.00;99526.31;4352832;32;20058;-72
2022/05/06 08:26:38;;;;;;;31.58;14.30;;;;;;;14.57;100.00;99514.66;4369673;32;20081;-74
2022/05/06 08:29:05;;;;;;;23.83;13.35;;;;;;;14.37;100.00;99504.53;4370099;32;20047;-74
2022/05/06 08:31:37;;;;;;;22.10;10.80;;;;;;;14.53;100.00;99503.53;4370397;32;20042;-74
2022/05/06 08:34:08;;;;;;;17.83;10.45;;;;;;;14.52;100.00;99482.94;4353548;32;20043;-75
2022/05/06 08:36:37;;;;;;;26.12;10.15;;;;;;;14.87;100.00;99508.56;4354435;33;20079;-76
2022/05/06 08:39:06;;;;;;;21.75;10.18;;;;;;;14.61;100.00;99468.91;4353457;32;20036;-73
2022/05/06 08:41:32;;;;;;;18.15;9.43;;;;;;;14.81;100.00;99504.22;4355010;32;20069;-74
2022/05/06 08:50:50;;;;;;;14.87;9.68;;;;;;;14.69;100.00;99471.09;4364025;32;20069;-75
2022/05/06 08:52:32;;;;;;;12.10;8.50;;;;;;;14.83;100.00;99512.87;4358083;32;20070;-74
2022/05/06 08:55:01;;;;;;;13.75;6.85;;;;;;;15.16;100.00;99505.37;4356856;32;20061;-75
2022/05/06 08:57:29;;;;;;;13.88;7.60;;;;;;;15.36;100.00;99514.63;4354169;32;20051;-74
2022/05/06 08:59:55;;;;;;;14.25;7.10;;;;;;;15.19;100.00;99477.72;4358424;32;20032;-75
2022/05/06 09:02:22;;;;;;;19.37;7.82;;;;;;;15.15;100.00;99484.75;4356985;32;20058;-76
2022/05/06 09:04:48;;;;;;;18.17;8.90;;;;;;;15.32;100.00;99481.00;4357971;32;20422;-76
2022/05/06 09:07:20;;;;;;;17.90;8.85;;;;;;;15.57;100.00;99500.00;4355886;32;20052;-77
2022/05/06 09:10:09;;;;;;;15.82;8.02;;;;;;;15.35;100.00;99475.84;4368319;32;20451;-76
2022/05/06 09:12:41;;;;;;;13.25;7.40;;;;;;;15.46;100.00;99509.25;4355918;32;20040;-75
2022/05/06 09:17:56;;;;;;;16.08;7.87;;;;;;;15.39;100.00;99519.53;4358891;32;20349;-74
2022/05/06 09:20:24;;;;;;;13.07;7.90;;;;;;;15.05;100.00;99476.63;4357657;32;20463;-85
2022/05/06 09:22:51;;;;;;;17.40;7.15;;;;;;;15.03;100.00;99497.75;4358838;32;20170;-74
2022/05/06 09:25:33;;;;;;;19.35;9.07;;;;;;;15.47;100.00;99529.84;4346323;32;20036;-76
2022/05/06 09:28:00;;;;;;;17.42;7.95;;;;;;;15.75;100.00;99525.00;4359525;32;20095;-75
2022/05/06 09:30:27;;;;;;;16.95;10.73;;;;;;;15.83;100.00;99529.06;4358392;32;20035;-79
2022/05/06 09:32:53;;;;;;;15.65;8.93;;;;;;;15.85;100.00;99522.28;4359115;32;20044;-76
2022/05/06 09:35:20;;;;;;;16.42;8.90;;;;;;;15.85;100.00;99519.56;4359391;32;20036;-75
2022/05/06 09:37:48;;;;;;;18.75;9.15;;;;;;;16.01;100.00;99525.81;4361765;32;20039;-75
2022/05/06 09:40:17;;;;;;;12.85;7.50;;;;;;;15.93;100.00;99502.72;4358355;32;20043;-77
2022/05/06 09:42:46;;;;;;;14.38;8.13;;;;;;;16.16;100.00;99495.06;4356823;32;20056;-76
2022/05/06 09:45:14;;;;;;;24.17;9.38;;;;;;;16.40;100.00;99516.22;4347219;32;20035;-76
2022/05/06 09:47:42;;;;;;;12.82;8.00;;;;;;;16.44;100.00;99509.16;4359962;32;20453;-76
2022/05/06 09:50:11;;;;;;;13.20;8.27;;;;;;;16.41;100.00;99485.25;4358838;32;20086;-77
2022/05/06 09:52:37;;;;;;;11.75;7.78;;;;;;;16.01;100.00;99481.53;4355082;32;20061;-79
2022/05/06 09:55:07;;;;;;;19.23;8.05;;;;;;;16.60;100.00;99510.72;4348706;32;20047;-78
2022/05/06 09:57:36;;;;;;;14.30;7.32;;;;;;;16.48;100.00;99477.59;4374155;32;20053;-78
2022/05/06 10:00:04;;;;;;;15.02;7.68;;;;;;;16.47;100.00;99479.50;4376850;32;20065;-77
2022/05/06 10:02:31;;;;;;;14.48;7.68;;;;;;;16.92;100.00;99514.94;4363902;32;20502;-84
2022/05/06 10:04:58;;;;;;;14.27;7.32;;;;;;;17.02;100.00;99514.91;4345268;32;20497;-77
2022/05/06 10:07:25;;;;;;;15.50;7.95;;;;;;;16.81;100.00;99521.50;4344379;32;20031;-78
2022/05/06 10:09:57;;;;;;;18.02;6.45;;;;;;;16.48;100.00;99486.56;4358054;32;20392;-78
2022/05/06 10:12:29;;;;;;;15.80;7.03;;;;;;;16.58;100.00;99526.50;4357044;32;20071;-77
2022/05/06 10:14:56;;;;;;;11.20;6.68;;;;;;;16.65;100.00;99518.03;4344699;32;20044;-75
2022/05/06 10:17:48;;;;;;;18.40;8.38;;;;;;;16.51;100.00;99479.75;4344824;33;20032;-76
2022/05/06 10:20:34;;;;;;;10.90;7.25;;;;;;;16.91;100.00;99510.59;4365860;32;20043;-78
2022/05/06 10:23:11;;;;;;;12.85;7.20;;;;;;;16.78;100.00;99494.88;4363825;32;20036;-74
2022/05/06 10:25:42;;;;;;;14.13;7.40;;;;;;;17.22;100.00;99521.31;4356300;32;20094;-82
2022/05/06 10:34:14;;;;;;;12.90;4.40;;;;;;;17.29;100.00;99531.88;4342801;33;20085;-75
2022/05/06 10:36:46;;;;;;;9.57;4.57;;;;;;;17.19;100.00;99514.53;4338423;33;20669;-84
2022/05/06 10:39:23;;;;;;;7.15;3.47;;;;;;;17.00;100.00;99506.19;4357102;32;20071;-76
2022/05/06 10:41:59;;;;;;;7.95;3.37;;;;;;;17.12;100.00;99521.37;4356559;32;20073;-79
2022/05/06 10:44:32;;;;;;;7.22;3.03;;;;;;;16.93;100.00;99519.31;4355577;32;20047;-77
2022/05/06 10:46:59;;;;;;;6.45;3.15;;;;;;;16.85;100.00;99522.59;4341195;32;20044;-77
2022/05/06 10:49:34;;;;;;;7.75;3.00;;;;;;;16.83;100.00;99519.31;4340391;32;20419;-76
2022/05/06 10:52:25;;;;;;;17.87;3.28;;;;;;;17.18;100.00;99531.13;4342658;33;20098;-82
2022/05/06 10:54:58;;;;;;;13.35;2.00;;;;;;;17.36;100.00;99533.22;4342583;32;20039;-76
2022/05/06 10:57:30;;;;;;;3.40;1.87;;;;;;;17.29;90.73;99521.00;4355883;32;20062;-76
2022/05/06 11:00:04;;;;;;;3.97;2.20;;;;;;;17.35;88.49;99504.34;4355905;32;20343;-77
2022/05/06 11:02:38;;;;;;;6.78;2.87;;;;;;;17.63;90.99;99510.16;4342548;32;20143;-79
2022/05/06 11:05:08;;;;;;;;;;;;;;;17.43;93.95;99479.25;4362847;32;20188;-77
2022/05/06 11:07:41;;;;;;;3.87;2.03;;;;;;;17.99;89.56;99506.31;4348034;32;19970;-76
2022/05/06 11:10:12;;;;;;;9.73;2.40;;;;;;;18.02;91.56;99468.41;4355795;32;20059;-76
2022/05/06 11:12:44;;;;;;;6.50;2.65;;;;;;;18.80;90.44;99504.59;4358574;32;20054;-78
2022/05/06 11:15:13;;;;;;;7.70;2.92;;;;;;;18.31;77.77;99426.66;4368799;32;20477;-77
2022/05/06 11:17:40;;;;;;;5.57;2.83;;;;;;;19.01;79.07;99493.44;4354764;32;20028;-77
2022/05/06 11:20:23;;;;;;;9.68;2.75;;;;;;;19.39;80.63;99496.94;4370021;32;20055;-75
2022/05/06 11:22:52;;;;;;;9.57;3.10;;;;;;;19.47;76.20;99489.22;4356746;32;20024;-80
2022/05/06 11:25:21;;;;;;;8.45;2.60;;;;;;;19.37;80.09;99457.38;4369259;32;20065;-84
2022/05/06 11:27:49;;;;;;;4.40;2.17;;;;;;;19.84;78.16;99496.53;4370472;32;20043;-76
2022/05/06 11:30:17;;;;;;;4.05;3.15;;;;;;;20.00;72.13;99488.06;4358044;32;20051;-76
2022/05/06 11:32:50;;;;;;;9.52;3.25;;;;;;;19.49;74.33;99460.47;4371489;32;20047;-76
2022/05/06 11:35:26;;;;;;;4.82;2.53;;;;;;;19.64;72.92;99489.47;4371084;32;20043;-77
2022/05/06 11:37:53;;;;;;;6.07;3.00;;;;;;;19.74;66.09;99455.72;4355914;32;20066;-75
2022/05/06 11:40:39;;;;;;;4.28;2.47;;;;;;;19.59;72.38;99493.09;4370505;32;20040;-75
2022/05/06 11:43:25;;;;;;;8.75;2.80;;;;;;;19.79;70.00;99458.38;4370606;32;20039;-84
2022/05/06 11:48:46;;;;;;;8.10;2.58;;;;;;;20.16;72.38;99455.78;4370177;32;20048;-76
2022/05/06 11:51:25;;;;;;;6.30;3.53;;;;;;;20.10;72.60;99485.13;4372044;32;20077;-75
2022/05/06 11:53:52;;;;;;;7.20;2.55;;;;;;;19.47;72.23;99457.25;4356550;32;20427;-75
2022/05/06 11:56:24;;;;;;;9.45;3.12;;;;;;;19.33;74.45;99450.94;4370032;32;20051;-77
2022/05/06 11:58:54;;;;;;;8.95;3.35;;;;;;;19.58;69.64;99439.56;4371671;32;20056;-75
2022/05/06 12:01:25;;;;;;;11.07;2.87;;;;;;;19.40;69.48;99456.81;4367167;32;20398;-75
2022/05/06 12:03:52;;;;;;;8.02;2.60;;;;;;;19.59;69.38;99487.62;4356575;33;20110;-76